Time;durP1;ratioP1;P1;durP2;ratioP2;P2;SDS_P1;SDS_P2;PMS_P1;PMS_P2;Temp;Humidity;BMP_temperature;BMP_pressure;BME280_temperature;BME280_humidity;BME280_pressure;Samples;Min_cycle;Max_cycle;Signal;HPM_P1;HPM_P2
2023/04/20 00:02:03;;;;;;;3.87;2.90;;;;;;;5.57;59.70;100678.59;5008076;28;20200;-67
2023/04/20 00:04:29;;;;;;;6.47;2.93;;;;;;;5.45;60.66;100686.94;5031524;28;20202;-67
2023/04/20 00:06:56;;;;;;;5.63;3.07;;;;;;;5.33;61.07;100676.84;5009813;28;20250;-67
2023/04/20 00:09:22;;;;;;;4.80;3.20;;;;;;;5.34;61.05;100672.50;5013080;28;20192;-67
2023/04/20 00:11:48;;;;;;;4.90;2.80;;;;;;;5.24;61.48;100667.72;5029150;28;20256;-67
2023/04/20 00:14:15;;;;;;;4.47;3.33;;;;;;;5.27;60.77;100667.84;5026263;28;20220;-67
2023/04/20 00:16:41;;;;;;;4.10;3.10;;;;;;;5.19;61.91;100656.13;5024889;28;20234;-67
2023/04/20 00:19:08;;;;;;;5.50;2.80;;;;;;;5.16;62.07;100654.28;5030698;28;20204;-67
2023/04/20 00:21:34;;;;;;;3.97;2.70;;;;;;;5.02;63.25;100640.63;5010024;28;20195;-67
2023/04/20 00:24:01;;;;;;;4.53;2.83;;;;;;;4.94;63.37;100646.41;5030577;28;20257;-67
2023/04/20 00:26:27;;;;;;;6.63;3.20;;;;;;;4.89;62.66;100640.09;5029300;28;20235;-67
2023/04/20 00:28:53;;;;;;;4.73;3.10;;;;;;;5.01;61.50;100632.69;5012618;28;20191;-67
2023/04/20 00:31:20;;;;;;;3.90;2.90;;;;;;;4.99;62.33;100629.09;5009280;28;21663;-67
2023/04/20 00:33:47;;;;;;;5.93;3.07;;;;;;;4.90;63.16;100626.13;5027064;28;20228;-67
2023/04/20 00:36:13;;;;;;;4.73;2.80;;;;;;;4.73;63.88;100615.84;5030084;28;20285;-67
2023/04/20 00:38:40;;;;;;;5.50;3.13;;;;;;;4.62;63.59;100621.47;5031467;28;20238;-67
2023/04/20 00:41:06;;;;;;;4.30;2.87;;;;;;;4.47;64.98;100623.50;5025831;28;20246;-67
2023/04/20 00:43:33;;;;;;;4.90;3.47;;;;;;;4.32;64.76;100616.75;5029098;28;20203;-67
2023/04/20 00:45:59;;;;;;;7.87;2.80;;;;;;;4.34;64.12;100619.44;5028534;28;20223;-67
2023/04/20 00:48:26;;;;;;;6.23;3.07;;;;;;;4.33;65.74;100618.53;5024815;28;20283;-67
2023/04/20 00:50:53;;;;;;;3.70;2.90;;;;;;;4.46;63.74;100617.34;5023639;28;20199;-67
2023/04/20 00:53:20;;;;;;;5.70;3.47;;;;;;;4.61;65.35;100617.06;5011136;28;20200;-67
2023/04/20 00:55:46;;;;;;;4.70;2.90;;;;;;;4.56;65.12;100619.50;5029214;28;20195;-67
2023/04/20 00:58:13;;;;;;;5.07;3.10;;;;;;;4.35;66.40;100609.00;5026115;28;20208;-67
2023/04/20 01:00:39;;;;;;;4.20;3.07;;;;;;;4.17;67.00;100604.75;5029201;28;20228;-67
2023/04/20 01:03:06;;;;;;;3.07;2.73;;;;;;;4.07;68.05;100611.34;5028185;28;20200;-67
2023/04/20 01:05:33;;;;;;;4.07;2.93;;;;;;;3.92;69.16;100602.78;5024069;28;20266;-67
2023/04/20 01:08:00;;;;;;;4.47;2.70;;;;;;;3.78;70.38;100597.84;5025416;28;20214;-67
2023/04/20 01:10:26;;;;;;;4.97;2.57;;;;;;;3.73;70.93;100596.75;5024591;28;20200;-67
2023/04/20 01:12:52;;;;;;;4.47;3.30;;;;;;;3.71;71.62;100600.16;5030530;28;20227;-67
2023/04/20 01:15:19;;;;;;;4.53;2.60;;;;;;;3.97;nan;100596.03;5012478;28;20226;-67
2023/04/20 01:17:46;;;;;;;6.50;2.80;;;;;;;4.16;70.49;100587.22;5009137;28;20299;-67
2023/04/20 01:20:13;;;;;;;5.97;3.10;;;;;;;4.19;69.49;100588.25;5007136;28;20271;-67
2023/04/20 01:22:44;;;;;;;4.43;3.00;;;;;;;4.28;68.84;100588.63;5016710;28;20585;-66
2023/04/20 01:25:10;;;;;;;5.03;3.00;;;;;;;4.24;68.69;100585.81;5020602;28;20221;-67
2023/04/20 01:27:37;;;;;;;5.57;2.77;;;;;;;4.19;70.13;100583.00;5028735;28;20218;-68
2023/04/20 01:30:04;;;;;;;4.23;2.87;;;;;;;3.99;71.02;100581.25;5018494;28;20203;-67
2023/04/20 01:32:30;;;;;;;4.67;2.93;;;;;;;3.71;72.08;100568.72;5022247;28;20207;-67
2023/04/20 01:34:57;;;;;;;4.57;2.80;;;;;;;3.59;73.55;100571.66;5009677;28;20194;-67
2023/04/20 01:37:23;;;;;;;5.93;3.07;;;;;;;3.47;74.38;100573.75;5028594;28;20218;-67
2023/04/20 01:39:50;;;;;;;4.23;3.13;;;;;;;3.46;74.66;100566.72;5026490;28;20230;-67
2023/04/20 01:42:16;;;;;;;5.70;3.10;;;;;;;3.58;73.99;100566.38;5028489;28;20286;-68
2023/04/20 01:44:43;;;;;;;5.50;3.30;;;;;;;3.46;75.02;100562.38;5029148;28;20198;-67
2023/04/20 01:47:09;;;;;;;4.50;3.00;;;;;;;3.33;75.13;100560.06;5026311;28;20269;-67
2023/04/20 01:49:35;;;;;;;6.93;3.07;;;;;;;3.44;74.66;100561.44;5024751;28;20253;-67
2023/04/20 01:52:02;;;;;;;4.63;3.17;;;;;;;3.41;75.50;100560.41;5025002;28;20216;-67
2023/04/20 01:54:28;;;;;;;5.83;3.07;;;;;;;3.32;76.41;100557.38;5023878;28;20210;-67
2023/04/20 01:56:56;;;;;;;7.40;3.27;;;;;;;3.76;73.32;100552.38;5010026;28;20287;-67
2023/04/20 01:59:22;;;;;;;3.93;2.90;;;;;;;3.84;72.21;100549.19;5015322;28;20207;-67
2023/04/20 02:01:49;;;;;;;5.40;3.07;;;;;;;3.84;72.43;100550.06;5024796;28;20333;-67
2023/04/20 02:04:15;;;;;;;5.50;2.93;;;;;;;3.75;72.57;100541.84;5027567;28;20210;-67
2023/04/20 02:06:42;;;;;;;4.40;2.87;;;;;;;3.60;73.45;100552.56;5025747;28;20686;-67
2023/04/20 02:09:08;;;;;;;3.97;2.87;;;;;;;3.61;73.38;100548.22;5027253;28;20194;-67
2023/04/20 02:11:35;;;;;;;6.97;3.07;;;;;;;3.60;73.35;100536.84;5028619;28;20209;-67
2023/04/20 02:14:02;;;;;;;7.83;3.00;;;;;;;3.87;72.10;100544.06;5026533;28;20198;-67
2023/04/20 02:16:29;;;;;;;7.07;3.17;;;;;;;3.99;71.96;100541.97;5023392;28;20240;-67
2023/04/20 02:18:55;;;;;;;3.80;2.77;;;;;;;4.06;71.64;100544.03;5027298;28;20199;-67
2023/04/20 02:21:22;;;;;;;5.60;3.30;;;;;;;4.15;71.72;100539.16;5025135;28;20226;-67
2023/04/20 02:23:48;;;;;;;7.20;3.17;;;;;;;4.09;70.83;100537.19;5029209;28;20244;-67
2023/04/20 02:26:15;;;;;;;6.13;2.87;;;;;;;4.06;71.25;100530.94;5023849;28;20257;-67
2023/04/20 02:28:42;;;;;;;4.80;3.03;;;;;;;3.99;72.39;100529.75;5025196;28;20738;-67
2023/04/20 02:31:08;;;;;;;7.13;3.00;;;;;;;3.98;72.44;100529.69;5027388;28;20210;-67
2023/04/20 02:33:35;;;;;;;4.80;3.00;;;;;;;3.96;72.50;100527.00;5024026;28;20195;-67
2023/04/20 02:36:01;;;;;;;6.93;3.30;;;;;;;3.94;72.66;100525.16;5023939;28;20237;-67
2023/04/20 02:38:27;;;;;;;4.13;2.97;;;;;;;3.97;72.23;100526.16;5024907;28;20239;-67
2023/04/20 02:40:54;;;;;;;5.57;3.30;;;;;;;4.14;70.97;100526.88;5024298;28;20206;-67
2023/04/20 02:43:20;;;;;;;4.90;3.23;;;;;;;4.16;71.19;100519.97;5004177;28;20222;-67
2023/04/20 02:45:46;;;;;;;4.53;3.43;;;;;;;4.18;70.42;100517.44;5016865;28;20271;-67
2023/04/20 02:48:13;;;;;;;4.97;3.57;;;;;;;4.18;69.98;100526.19;5022092;28;20208;-67
2023/04/20 02:50:41;;;;;;;4.60;3.20;;;;;;;4.27;68.78;100521.31;5027711;28;20195;-68
2023/04/20 02:53:09;;;;;;;5.20;3.30;;;;;;;4.36;68.01;100521.66;5023517;28;20209;-67
2023/04/20 02:55:36;;;;;;;4.73;3.03;;;;;;;4.49;67.25;100516.94;5000869;28;20209;-68
2023/04/20 02:58:02;;;;;;;8.43;3.53;;;;;;;4.56;68.03;100521.59;5020980;28;20937;-68
2023/04/20 03:00:28;;;;;;;6.80;3.10;;;;;;;4.63;68.02;100520.97;5024716;28;20195;-67
2023/04/20 03:02:55;;;;;;;6.27;3.27;;;;;;;4.72;67.34;100511.72;5028596;28;20191;-68
2023/04/20 03:05:21;;;;;;;5.77;3.37;;;;;;;4.78;67.27;100515.44;5024908;28;20743;-67
2023/04/20 03:07:48;;;;;;;7.17;3.23;;;;;;;4.80;67.48;100509.41;5026028;28;20234;-67
2023/04/20 03:10:14;;;;;;;5.23;3.00;;;;;;;4.87;66.43;100505.31;5010352;28;20545;-67
2023/04/20 03:12:40;;;;;;;5.80;3.60;;;;;;;4.89;66.47;100503.63;5028084;28;20192;-67
2023/04/20 03:15:07;;;;;;;7.27;3.40;;;;;;;4.94;66.59;100499.44;5023513;28;20199;-68
2023/04/20 03:17:34;;;;;;;4.40;3.10;;;;;;;5.04;65.79;100497.22;5025309;28;20221;-67
2023/04/20 03:20:01;;;;;;;6.87;3.20;;;;;;;5.18;65.85;100502.06;5027270;28;20246;-68
2023/04/20 03:22:27;;;;;;;6.53;3.20;;;;;;;5.25;65.20;100494.50;5027301;28;20230;-68
2023/04/20 03:24:53;;;;;;;4.57;3.33;;;;;;;5.46;65.29;100493.47;5025268;28;20466;-67
2023/04/20 03:27:20;;;;;;;5.93;3.40;;;;;;;5.54;65.59;100495.50;5018057;28;20223;-67
2023/04/20 03:29:47;;;;;;;6.93;3.43;;;;;;;5.67;65.55;100491.59;5024515;28;20218;-67
2023/04/20 03:32:14;;;;;;;6.43;3.30;;;;;;;5.75;65.51;100487.50;5005923;28;20219;-68
2023/04/20 03:34:40;;;;;;;6.27;3.73;;;;;;;5.78;65.99;100490.22;5023592;28;20518;-67
2023/04/20 03:37:06;;;;;;;8.70;3.80;;;;;;;5.83;65.75;100488.66;5007567;28;20652;-67
2023/04/20 03:39:33;;;;;;;4.70;3.60;;;;;;;5.95;65.20;100489.06;5027444;28;20231;-67
2023/04/20 03:41:59;;;;;;;5.17;3.70;;;;;;;6.02;65.13;100479.69;5026986;28;20202;-67
2023/04/20 03:44:25;;;;;;;6.47;3.50;;;;;;;6.08;65.33;100489.50;5025486;28;20203;-67
2023/04/20 03:46:52;;;;;;;6.13;4.00;;;;;;;6.08;65.71;100485.16;5029110;28;20587;-67
2023/04/20 03:49:22;;;;;;;7.00;4.23;;;;;;;6.05;66.53;100486.78;5028890;28;20211;-67
2023/04/20 03:51:49;;;;;;;5.13;3.73;;;;;;;6.05;67.10;100484.16;5024746;28;20587;-67
2023/04/20 03:54:16;;;;;;;6.67;3.80;;;;;;;6.03;67.29;100486.72;5027214;28;20648;-67
2023/04/20 03:56:44;;;;;;;6.10;3.83;;;;;;;6.01;68.17;100480.53;5010388;28;20270;-67
2023/04/20 03:59:11;;;;;;;6.03;4.43;;;;;;;6.03;69.04;100481.47;5027849;28;20467;-67
2023/04/20 04:01:41;;;;;;;8.03;4.17;;;;;;;6.05;69.93;100484.16;5024119;28;20247;-67
2023/04/20 04:04:07;;;;;;;8.13;4.67;;;;;;;6.11;70.24;100484.34;5026177;28;20588;-67
2023/04/20 04:06:34;;;;;;;7.17;5.07;;;;;;;6.07;71.12;100478.09;5022504;28;20216;-67
2023/04/20 04:09:01;;;;;;;7.20;4.90;;;;;;;6.01;73.22;100480.53;5029435;28;20200;-67
2023/04/20 04:11:28;;;;;;;7.90;4.80;;;;;;;5.95;74.95;100483.81;5034151;28;20202;-67
2023/04/20 04:13:57;;;;;;;7.40;4.60;;;;;;;5.89;76.16;100480.06;5019534;28;20203;-68
2023/04/20 04:16:23;;;;;;;9.97;5.30;;;;;;;5.87;76.70;100481.75;5024280;28;20285;-68
2023/04/20 04:18:49;;;;;;;7.73;4.87;;;;;;;5.80;77.38;100475.41;5004785;28;20195;-67
2023/04/20 04:21:16;;;;;;;7.67;5.37;;;;;;;5.76;78.62;100473.50;5023157;28;20702;-67
2023/04/20 04:23:42;;;;;;;12.10;5.30;;;;;;;5.79;79.08;100476.25;5027319;28;20640;-67
2023/04/20 04:26:10;;;;;;;7.53;5.03;;;;;;;5.79;78.65;100470.09;5011906;28;20219;-67
2023/04/20 04:28:37;;;;;;;7.50;5.17;;;;;;;5.78;80.23;100473.56;5027763;28;20742;-67
2023/04/20 04:31:04;;;;;;;8.63;5.07;;;;;;;5.75;80.00;100468.22;5026816;28;20211;-67
2023/04/20 04:33:35;;;;;;;8.63;5.27;;;;;;;5.78;80.29;100469.19;5020460;28;20286;-67
2023/04/20 04:36:01;;;;;;;10.30;5.20;;;;;;;5.79;80.82;100478.88;5024840;28;20226;-67
2023/04/20 04:38:27;;;;;;;9.43;5.73;;;;;;;5.80;80.75;100479.75;5016422;28;20448;-68
2023/04/20 04:40:55;;;;;;;9.23;5.30;;;;;;;5.83;80.72;100471.97;5025192;28;20200;-67
2023/04/20 04:43:23;;;;;;;9.13;5.20;;;;;;;5.82;81.08;100480.72;5007623;28;20250;-67
2023/04/20 04:45:49;;;;;;;10.23;5.53;;;;;;;5.78;81.79;100479.72;5004161;28;20208;-67
2023/04/20 04:48:18;;;;;;;9.13;5.73;;;;;;;5.70;82.30;100475.94;5023970;28;20224;-67
2023/04/20 04:50:45;;;;;;;7.50;5.30;;;;;;;5.73;82.88;100481.28;5026960;28;20344;-67
2023/04/20 04:53:11;;;;;;;8.30;5.33;;;;;;;5.70;82.71;100475.03;5026305;28;20204;-67
2023/04/20 04:55:38;;;;;;;10.77;5.70;;;;;;;5.65;83.59;100465.28;5023913;28;20316;-67
2023/04/20 04:58:04;;;;;;;10.40;5.50;;;;;;;5.61;84.48;100467.75;5027117;28;20227;-67
2023/04/20 05:00:31;;;;;;;7.30;5.07;;;;;;;5.62;84.09;100466.91;5030313;28;20210;-67
2023/04/20 05:02:57;;;;;;;7.43;5.40;;;;;;;5.59;85.10;100464.16;5009936;28;20373;-67
2023/04/20 05:05:24;;;;;;;8.67;5.90;;;;;;;5.62;86.04;100462.53;5025202;28;20203;-67
2023/04/20 05:07:50;;;;;;;7.83;5.70;;;;;;;5.62;85.62;100466.91;5029696;28;20252;-67
2023/04/20 05:10:17;;;;;;;8.83;5.40;;;;;;;5.64;86.21;100470.47;5024153;28;20254;-67
2023/04/20 05:12:43;;;;;;;7.83;5.57;;;;;;;5.66;85.85;100467.06;5025414;28;20196;-66
2023/04/20 05:15:10;;;;;;;8.63;5.40;;;;;;;5.68;85.81;100469.75;5026247;28;20520;-67
2023/04/20 05:17:36;;;;;;;8.70;5.43;;;;;;;5.72;86.24;100476.00;5023519;28;20250;-67
2023/04/20 05:20:05;;;;;;;9.63;5.93;;;;;;;5.70;86.30;100475.94;5029841;28;20204;-68
2023/04/20 05:22:31;;;;;;;9.83;5.80;;;;;;;5.68;87.54;100477.63;5024225;28;20256;-68
2023/04/20 05:24:58;;;;;;;7.87;5.33;;;;;;;5.71;88.06;100466.31;5025912;28;20207;-67
2023/04/20 05:27:24;;;;;;;6.97;5.20;;;;;;;5.75;87.76;100481.34;5024099;28;20346;-68
2023/04/20 05:29:51;;;;;;;7.23;5.17;;;;;;;5.72;88.03;100474.25;5023620;28;20580;-71
2023/04/20 05:32:17;;;;;;;7.00;4.90;;;;;;;5.76;88.63;100473.50;5004834;28;20215;-70
2023/04/20 05:34:43;;;;;;;9.10;5.37;;;;;;;5.77;88.33;100477.03;5022675;28;20218;-71
2023/04/20 05:37:10;;;;;;;7.13;5.00;;;;;;;5.82;88.99;100478.09;5024524;28;20620;-70
2023/04/20 05:39:37;;;;;;;8.57;5.23;;;;;;;5.77;88.49;100477.94;5027519;28;20717;-70
2023/04/20 05:42:03;;;;;;;9.67;5.40;;;;;;;5.78;89.09;100477.09;5023707;28;20677;-71
2023/04/20 05:44:29;;;;;;;9.43;5.50;;;;;;;5.85;89.62;100483.44;5021827;28;20231;-71
2023/04/20 05:46:56;;;;;;;8.70;5.30;;;;;;;5.83;89.37;100478.13;5023903;28;20231;-70
2023/04/20 05:49:22;;;;;;;8.57;5.10;;;;;;;5.89;89.17;100478.38;5023017;28;20199;-73
2023/04/20 05:51:49;;;;;;;6.13;4.80;;;;;;;5.94;89.25;100481.16;5023312;28;20216;-72
2023/04/20 05:54:16;;;;;;;10.07;4.67;;;;;;;6.02;88.89;100478.78;5024862;28;20193;-70
2023/04/20 05:56:42;;;;;;;9.90;4.97;;;;;;;6.03;89.76;100477.94;5023824;28;20223;-71
2023/04/20 05:59:09;;;;;;;13.10;5.10;;;;;;;6.00;89.93;100481.34;5006075;28;20679;-70
2023/04/20 06:01:35;;;;;;;7.83;3.90;;;;;;;5.95;89.50;100481.19;5025819;28;20198;-71
2023/04/20 06:04:01;;;;;;;4.80;4.10;;;;;;;5.98;90.44;100483.91;5024547;28;20626;-70
2023/04/20 06:06:28;;;;;;;7.70;3.30;;;;;;;6.02;89.87;100482.31;5024665;28;20226;-70
2023/04/20 06:08:56;;;;;;;4.83;3.47;;;;;;;5.96;89.65;100482.97;5024038;28;20651;-72
2023/04/20 06:11:23;;;;;;;4.00;3.30;;;;;;;6.01;89.44;100487.53;5025924;28;20245;-71
2023/04/20 06:13:49;;;;;;;4.03;3.20;;;;;;;6.04;89.46;100485.88;5022982;28;20200;-72
2023/04/20 06:16:16;;;;;;;4.00;3.10;;;;;;;6.12;89.58;100479.13;5008253;28;20227;-67
2023/04/20 06:18:42;;;;;;;4.70;3.43;;;;;;;6.05;88.98;100490.31;5021503;28;20204;-67
2023/04/20 06:21:10;;;;;;;4.97;3.70;;;;;;;6.02;89.76;100495.47;5027107;28;20668;-67
2023/04/20 06:23:39;;;;;;;4.50;3.30;;;;;;;5.94;90.83;100489.91;5023520;28;20245;-67
2023/04/20 06:26:07;;;;;;;5.30;3.77;;;;;;;5.85;91.82;100486.97;5021165;28;20222;-67
2023/04/20 06:28:35;;;;;;;6.90;3.80;;;;;;;5.82;91.94;100488.59;5023552;28;20273;-67
2023/04/20 06:31:02;;;;;;;5.60;4.03;;;;;;;5.77;92.98;100495.44;5026638;28;20196;-67
2023/04/20 06:33:29;;;;;;;5.00;4.03;;;;;;;5.80;93.51;100500.78;5011561;28;20683;-67
2023/04/20 06:35:55;;;;;;;6.40;4.57;;;;;;;5.77;92.63;100498.06;4999996;28;20222;-67
2023/04/20 06:38:24;;;;;;;4.70;4.00;;;;;;;5.64;92.95;100504.63;5019622;28;20597;-67
2023/04/20 06:40:50;;;;;;;6.67;4.50;;;;;;;5.50;94.43;100504.13;5015281;28;20247;-67
2023/04/20 06:43:16;;;;;;;4.90;4.17;;;;;;;5.42;96.21;100497.72;5026290;28;20195;-67
2023/04/20 06:45:43;;;;;;;6.77;4.83;;;;;;;5.31;97.18;100491.19;5023560;28;20200;-67
2023/04/20 06:48:09;;;;;;;7.67;5.83;;;;;;;5.20;98.25;100500.38;5012840;28;20220;-67
2023/04/20 06:50:55;;;;;;;6.63;4.80;;;;;;;5.20;100.00;100487.25;5021993;28;20202;-67
2023/04/20 06:53:22;;;;;;;8.87;5.00;;;;;;;5.11;100.00;100495.72;5020715;28;20198;-68
2023/04/20 06:55:48;;;;;;;6.30;4.67;;;;;;;5.06;100.00;100496.38;5002697;28;20214;-67
2023/04/20 06:58:14;;;;;;;7.07;4.83;;;;;;;5.07;100.00;100493.81;5021886;28;20682;-68
2023/04/20 07:00:41;;;;;;;8.10;5.00;;;;;;;5.07;100.00;100490.28;5025111;28;20230;-68
2023/04/20 07:03:07;;;;;;;8.07;5.30;;;;;;;5.12;100.00;100496.59;5024907;28;20623;-68
2023/04/20 07:05:35;;;;;;;8.47;5.67;;;;;;;5.19;100.00;100488.09;5023384;28;20674;-67
2023/04/20 07:08:01;;;;;;;9.13;5.83;;;;;;;5.16;100.00;100494.13;5024672;28;20259;-68
2023/04/20 07:10:28;;;;;;;9.03;6.00;;;;;;;5.20;100.00;100487.25;5019961;28;20229;-68
2023/04/20 07:12:54;;;;;;;10.80;6.00;;;;;;;5.22;100.00;100485.63;5025259;28;20224;-68
2023/04/20 07:15:21;;;;;;;8.27;5.70;;;;;;;5.24;100.00;100479.59;5034182;28;20196;-69
2023/04/20 07:17:48;;;;;;;8.80;6.00;;;;;;;5.28;100.00;100483.22;5029499;28;20228;-69
2023/04/20 07:20:14;;;;;;;8.57;6.00;;;;;;;5.30;100.00;100489.41;5032270;28;20199;-69
2023/04/20 07:22:41;;;;;;;8.67;6.20;;;;;;;5.37;100.00;100482.63;5031972;28;20199;-69
2023/04/20 07:25:08;;;;;;;11.57;6.27;;;;;;;5.47;100.00;100482.13;5030711;28;20240;-70
2023/04/20 07:27:40;;;;;;;9.47;6.10;;;;;;;5.53;100.00;100482.31;5031357;28;20266;-69
2023/04/20 07:30:09;;;;;;;8.57;5.87;;;;;;;5.53;100.00;100475.34;5012413;28;20596;-69
2023/04/20 07:32:37;;;;;;;9.63;5.80;;;;;;;5.50;100.00;100488.38;5037573;28;20256;-69
2023/04/20 07:35:04;;;;;;;8.57;5.97;;;;;;;5.41;100.00;100476.66;5030325;28;20206;-68
2023/04/20 07:37:32;;;;;;;8.30;5.90;;;;;;;5.41;100.00;100480.16;5033533;28;20207;-68
2023/04/20 07:39:59;;;;;;;6.13;5.30;;;;;;;5.47;99.48;100476.88;5034914;28;20210;-68
2023/04/20 07:42:25;;;;;;;8.80;5.47;;;;;;;5.48;100.00;100478.66;5030677;28;20480;-69
2023/04/20 07:44:51;;;;;;;7.90;5.27;;;;;;;5.56;100.00;100477.19;5033908;28;20203;-68
2023/04/20 07:47:18;;;;;;;8.10;5.77;;;;;;;5.60;99.43;100484.31;5013413;28;20223;-68
2023/04/20 07:49:45;;;;;;;6.83;5.23;;;;;;;5.63;98.65;100481.81;5030132;28;20205;-69
2023/04/20 07:52:11;;;;;;;7.10;4.80;;;;;;;5.86;97.40;100491.38;5032450;28;20598;-68
2023/04/20 07:54:45;;;;;;;7.37;5.30;;;;;;;5.94;98.08;100489.03;5031018;28;20196;-69
2023/04/20 07:57:12;;;;;;;7.27;5.27;;;;;;;5.94;98.68;100483.78;5014298;28;20284;-69
2023/04/20 07:59:39;;;;;;;7.97;5.50;;;;;;;6.08;96.96;100486.88;5033174;28;20253;-68
2023/04/20 08:02:06;;;;;;;8.33;5.07;;;;;;;6.10;96.96;100488.72;5033907;28;20212;-67
2023/04/20 08:04:37;;;;;;;7.93;5.30;;;;;;;6.13;96.14;100490.53;5028169;28;20549;-69
2023/04/20 08:07:04;;;;;;;6.73;5.30;;;;;;;6.07;96.12;100485.09;5035647;28;20635;-68
2023/04/20 08:09:30;;;;;;;7.10;5.17;;;;;;;6.23;96.15;100477.75;5031840;28;20238;-69
2023/04/20 08:11:57;;;;;;;7.80;5.50;;;;;;;6.31;95.98;100477.09;5030359;28;20725;-67
2023/04/20 08:14:23;;;;;;;7.10;5.20;;;;;;;6.38;94.24;100477.31;5030639;28;20250;-67
2023/04/20 08:16:50;;;;;;;6.80;4.73;;;;;;;6.55;92.86;100475.22;5030549;28;20250;-70
2023/04/20 08:19:16;;;;;;;7.83;5.13;;;;;;;6.84;93.33;100469.13;5015584;28;20201;-69
2023/04/20 08:21:43;;;;;;;7.30;5.33;;;;;;;7.05;92.48;100479.38;5028796;28;20720;-68
2023/04/20 08:24:09;;;;;;;6.87;5.30;;;;;;;7.26;93.13;100473.84;5007977;28;20214;-68
2023/04/20 08:26:36;;;;;;;7.17;5.00;;;;;;;7.39;88.00;100478.56;5025752;28;20223;-69
2023/04/20 08:29:03;;;;;;;6.20;4.83;;;;;;;7.39;88.00;100481.22;5025988;28;20227;-68
2023/04/20 08:31:30;;;;;;;8.13;5.73;;;;;;;7.48;87.46;100470.03;5028965;28;20200;-68
2023/04/20 08:33:56;;;;;;;6.17;4.30;;;;;;;8.06;83.94;100464.53;5007764;28;20661;-67
2023/04/20 08:36:23;;;;;;;9.07;5.00;;;;;;;8.55;83.99;100460.44;5025009;28;20228;-68
2023/04/20 08:39:04;;;;;;;6.97;4.97;;;;;;;8.93;82.21;100460.38;5019641;28;20270;-68
2023/04/20 08:41:31;;;;;;;6.53;4.30;;;;;;;9.04;81.67;100469.41;5020197;28;20207;-68
2023/04/20 08:43:58;;;;;;;6.67;4.47;;;;;;;8.97;78.87;100475.44;5007501;28;20198;-67
2023/04/20 08:46:25;;;;;;;5.73;4.00;;;;;;;8.74;79.72;100477.56;5017412;28;20743;-67
2023/04/20 08:48:53;;;;;;;5.63;4.30;;;;;;;8.56;80.86;100469.25;5022556;28;20218;-67
2023/04/20 08:51:20;;;;;;;5.97;4.30;;;;;;;8.41;79.69;100457.50;5018552;28;20200;-67
2023/04/20 08:53:47;;;;;;;6.03;4.43;;;;;;;8.47;80.25;100462.91;5019924;28;20285;-67
2023/04/20 08:56:13;;;;;;;6.70;4.87;;;;;;;8.49;81.47;100468.22;5014648;28;20863;-68
2023/04/20 08:58:41;;;;;;;6.27;4.80;;;;;;;8.64;79.11;100468.56;5021159;28;20638;-68
2023/04/20 09:01:09;;;;;;;6.57;4.90;;;;;;;9.06;77.44;100454.47;5019066;28;20616;-67
2023/04/20 09:03:41;;;;;;;6.67;4.80;;;;;;;9.43;75.80;100458.75;5020007;28;20203;-67
2023/04/20 09:06:16;;;;;;;7.50;5.03;;;;;;;9.61;74.43;100455.56;5017043;28;20565;-67
2023/04/20 09:08:43;;;;;;;8.10;5.10;;;;;;;9.90;73.73;100443.72;5019948;28;20222;-68
2023/04/20 09:11:36;;;;;;;6.90;5.10;;;;;;;10.35;71.75;100438.31;5018042;28;20286;-67
2023/04/20 09:14:11;;;;;;;9.00;5.70;;;;;;;10.26;69.85;100450.50;5015126;28;20210;-67
2023/04/20 09:16:49;;;;;;;7.17;5.50;;;;;;;10.67;70.33;100441.41;5017498;28;20224;-68
2023/04/20 09:19:22;;;;;;;6.83;5.43;;;;;;;10.60;69.43;100441.31;5019286;28;20188;-67
2023/04/20 09:21:50;;;;;;;7.47;5.40;;;;;;;10.61;68.91;100444.00;5020525;28;20749;-67
2023/04/20 09:24:19;;;;;;;7.20;5.00;;;;;;;11.07;67.41;100441.94;5017797;28;20665;-67
2023/04/20 09:26:46;;;;;;;9.27;5.40;;;;;;;11.27;66.18;100440.44;5020498;28;20230;-67
2023/04/20 09:29:20;;;;;;;6.73;5.07;;;;;;;11.40;65.95;100435.25;5018547;28;20270;-67
2023/04/20 09:31:48;;;;;;;6.37;4.93;;;;;;;11.55;65.07;100432.75;5021124;28;20249;-67
2023/04/20 09:34:14;;;;;;;6.57;4.63;;;;;;;11.49;65.54;100430.91;5017242;28;20667;-68
2023/04/20 09:36:49;;;;;;;5.93;4.97;;;;;;;11.57;66.18;100429.22;5021268;28;20220;-68
2023/04/20 09:39:17;;;;;;;5.47;4.70;;;;;;;11.77;64.63;100429.44;5019758;28;20224;-68
2023/04/20 09:41:45;;;;;;;6.57;4.80;;;;;;;11.69;63.22;100435.56;5021913;28;20705;-67
2023/04/20 09:44:12;;;;;;;7.53;5.30;;;;;;;11.35;64.03;100436.97;5017782;28;20215;-68
2023/04/20 09:46:40;;;;;;;7.93;5.30;;;;;;;11.68;64.33;100424.06;5015965;28;20304;-67
2023/04/20 09:49:08;;;;;;;10.03;5.60;;;;;;;11.35;63.44;100432.56;5026545;28;20312;-68
2023/04/20 09:51:46;;;;;;;6.17;5.10;;;;;;;11.37;64.47;100433.47;5023410;28;20273;-67
2023/04/20 09:54:13;;;;;;;6.67;5.17;;;;;;;11.73;63.93;100421.44;5025170;28;20195;-68
2023/04/20 09:56:40;;;;;;;7.93;5.10;;;;;;;11.99;62.95;100421.69;5006031;28;20212;-69
2023/04/20 09:59:06;;;;;;;7.07;5.50;;;;;;;11.85;63.02;100408.31;5024534;28;20658;-68
2023/04/20 10:01:35;;;;;;;6.80;5.50;;;;;;;12.11;62.61;100397.91;5023972;28;20242;-69
2023/04/20 10:04:05;;;;;;;6.07;5.10;;;;;;;12.18;61.84;100407.69;5026401;28;20229;-68
2023/04/20 10:06:33;;;;;;;7.93;4.83;;;;;;;12.17;61.33;100390.88;5023522;28;20253;-68
2023/04/20 10:09:02;;;;;;;6.57;5.00;;;;;;;12.26;59.41;100391.81;5026824;28;20709;-71
2023/04/20 10:11:43;;;;;;;8.03;5.37;;;;;;;12.49;58.98;100392.84;5022832;28;20233;-72
2023/04/20 10:14:24;;;;;;;6.77;5.23;;;;;;;12.24;58.99;100389.13;5021115;28;20308;-73
2023/04/20 10:17:00;;;;;;;8.07;5.10;;;;;;;12.17;59.39;100379.34;5046027;23;20274;-74
2023/04/20 10:19:44;;;;;;;7.30;4.93;;;;;;;12.78;57.94;100371.72;5036976;28;20645;-72
2023/04/20 10:22:33;;;;;;;7.00;5.23;;;;;;;12.80;57.77;100356.66;5038223;28;20203;-72
2023/04/20 10:25:01;;;;;;;6.77;4.80;;;;;;;13.00;56.30;100354.97;5022037;28;20195;-70
2023/04/20 10:27:27;;;;;;;7.30;5.10;;;;;;;12.88;56.75;100356.72;5042702;28;20296;-72
2023/04/20 10:29:54;;;;;;;6.53;4.80;;;;;;;12.92;56.69;100353.19;5050912;28;20611;-72
2023/04/20 10:32:25;;;;;;;6.47;4.97;;;;;;;12.89;56.79;100346.06;5051808;28;20258;-71
2023/04/20 10:35:06;;;;;;;6.43;4.93;;;;;;;13.53;54.42;100346.22;5043936;28;20226;-70
2023/04/20 10:37:34;;;;;;;7.37;5.20;;;;;;;14.16;52.29;100341.75;5047834;28;20294;-72
2023/04/20 10:40:01;;;;;;;8.80;5.20;;;;;;;14.03;51.06;100337.34;5049271;28;20198;-69
2023/04/20 10:42:28;;;;;;;7.07;4.90;;;;;;;13.97;52.59;100345.31;5046648;28;20602;-72
2023/04/20 10:44:54;;;;;;;8.10;4.77;;;;;;;13.81;52.82;100339.13;5053025;28;20198;-70
2023/04/20 10:47:32;;;;;;;8.10;5.10;;;;;;;13.63;52.59;100332.06;5047483;28;20628;-70
2023/04/20 10:50:09;;;;;;;6.33;5.40;;;;;;;13.53;51.71;100322.28;5047935;28;20202;-73
2023/04/20 10:52:37;;;;;;;6.13;4.60;;;;;;;13.62;52.60;100324.97;5045483;28;20197;-72
2023/04/20 10:55:05;;;;;;;5.73;4.90;;;;;;;13.64;51.25;100320.53;5048994;28;20221;-71
2023/04/20 10:57:32;;;;;;;6.13;5.00;;;;;;;13.94;52.51;100321.38;5048823;28;20253;-70
2023/04/20 10:59:59;;;;;;;6.83;4.70;;;;;;;14.39;48.23;100313.25;5034150;28;20624;-70
2023/04/20 11:02:26;;;;;;;7.77;5.30;;;;;;;14.98;46.72;100309.50;5035136;28;20337;-70
2023/04/20 11:04:59;;;;;;;6.53;4.80;;;;;;;14.82;45.45;100301.59;5043754;28;20198;-71
2023/04/20 11:07:26;;;;;;;6.13;4.57;;;;;;;14.55;45.78;100305.28;5041863;28;20223;-70
2023/04/20 11:09:55;;;;;;;7.47;4.87;;;;;;;13.89;47.65;100301.84;5046747;28;20214;-72
2023/04/20 11:12:21;;;;;;;6.17;5.00;;;;;;;14.03;47.27;100278.78;5044436;28;20619;-70
2023/04/20 11:14:53;;;;;;;5.30;4.27;;;;;;;14.48;45.75;100287.53;5048256;28;20665;-69
2023/04/20 11:17:29;;;;;;;5.97;4.73;;;;;;;14.29;44.46;100276.00;5045435;28;20233;-70
2023/04/20 11:20:11;;;;;;;7.20;4.60;;;;;;;14.21;44.15;100280.50;5047411;28;20628;-71
2023/04/20 11:22:38;;;;;;;5.97;4.37;;;;;;;14.81;44.52;100262.47;5048016;28;20206;-70
2023/04/20 11:25:06;;;;;;;12.77;4.67;;;;;;;15.18;42.16;100261.34;5052671;28;20234;-71
2023/04/20 11:27:34;;;;;;;8.30;4.37;;;;;;;15.42;41.36;100267.38;5044643;28;20253;-71
2023/04/20 11:30:04;;;;;;;7.10;4.27;;;;;;;14.59;41.89;100267.94;5032855;28;20214;-71
2023/04/20 11:32:31;;;;;;;5.83;4.00;;;;;;;14.21;43.12;100269.84;5044845;28;20208;-72
2023/04/20 11:35:06;;;;;;;5.60;4.00;;;;;;;13.68;44.57;100268.19;5047127;28;20208;-70